createdAt,value
2019-01-22T00:00:14.924Z,96.40
2019-01-22T00:01:15.199Z,96.41
2019-01-22T00:02:15.673Z,96.37
2019-01-22T00:03:16.141Z,96.40
2019-01-22T00:04:16.611Z,96.38
2019-01-22T00:05:17.083Z,96.36
2019-01-22T00:06:17.556Z,96.38
2019-01-22T00:07:18.029Z,96.36
2019-01-22T00:08:18.500Z,96.40
2019-01-22T00:09:18.971Z,96.38
2019-01-22T00:10:19.444Z,96.40
2019-01-22T00:11:19.913Z,96.38
2019-01-22T00:12:20.385Z,96.40
2019-01-22T00:13:20.855Z,96.40
2019-01-22T00:14:21.327Z,96.36
2019-01-22T00:15:21.798Z,96.37
2019-01-22T00:16:22.268Z,96.36
2019-01-22T00:17:23.080Z,96.41
2019-01-22T00:18:23.209Z,96.40
2019-01-22T00:19:24.019Z,96.41
2019-01-22T00:20:24.147Z,96.41
2019-01-22T00:21:24.615Z,96.40
2019-01-22T00:22:25.090Z,96.40
2019-01-22T00:23:25.554Z,96.38
2019-01-22T00:24:26.026Z,96.38
2019-01-22T00:25:26.492Z,96.39
2019-01-22T00:26:26.961Z,96.41
2019-01-22T00:27:27.428Z,96.38
2019-01-22T00:28:27.904Z,96.37
2019-01-22T00:29:28.365Z,96.39
2019-01-22T00:30:28.834Z,96.38
2019-01-22T00:31:29.302Z,96.38
2019-01-22T00:32:30.110Z,96.40
2019-01-22T00:33:30.579Z,96.36
2019-01-22T00:34:30.706Z,96.40
2019-01-22T00:35:31.174Z,96.36
2019-01-22T00:36:31.641Z,96.40
2019-01-22T00:37:32.112Z,96.36
2019-01-22T00:38:32.579Z,96.37
2019-01-22T00:39:33.048Z,96.40
2019-01-22T00:40:33.516Z,96.40
2019-01-22T00:41:34.003Z,96.40
2019-01-22T00:42:34.456Z,96.40
2019-01-22T00:43:34.921Z,96.38
2019-01-22T00:44:35.390Z,96.40
2019-01-22T00:45:35.865Z,96.40
2019-01-22T00:46:36.328Z,96.36
2019-01-22T00:47:36.798Z,96.40
2019-01-22T00:48:37.317Z,96.36
2019-01-22T00:49:37.733Z,96.40
2019-01-22T00:50:38.205Z,96.40
2019-01-22T00:51:38.673Z,96.36
2019-01-22T00:52:39.142Z,96.40
2019-01-22T00:53:39.612Z,96.40
2019-01-22T00:54:40.118Z,96.40
2019-01-22T00:55:40.551Z,96.40
2019-01-22T00:56:41.019Z,96.40
2019-01-22T00:57:41.494Z,96.40
2019-01-22T00:58:41.958Z,96.40
2019-01-22T00:59:42.431Z,96.36
2019-01-22T01:00:42.897Z,96.38
2019-01-22T01:01:43.370Z,96.36
2019-01-22T01:02:43.840Z,96.40
2019-01-22T01:03:44.359Z,96.40
2019-01-22T01:04:44.780Z,96.40
2019-01-22T01:05:45.248Z,96.41
2019-01-22T01:06:45.717Z,96.40
2019-01-22T01:07:46.188Z,96.41
2019-01-22T01:08:46.659Z,96.36
2019-01-22T01:09:47.132Z,96.40
2019-01-22T01:10:47.599Z,96.40
2019-01-22T01:11:48.079Z,96.41
2019-01-22T01:12:48.578Z,96.38
2019-01-22T01:13:49.012Z,96.40
2019-01-22T01:14:49.488Z,96.40
2019-01-22T01:15:49.955Z,96.40
2019-01-22T01:16:50.424Z,96.40
2019-01-22T01:17:50.895Z,96.38
2019-01-22T01:18:51.366Z,96.40
2019-01-22T01:19:51.878Z,96.41
2019-01-22T01:20:52.308Z,96.40
2019-01-22T01:21:52.778Z,96.40
2019-01-22T01:22:53.253Z,96.40
2019-01-22T01:23:53.722Z,96.40
2019-01-22T01:24:54.533Z,96.40
2019-01-22T01:25:54.664Z,96.40
2019-01-22T01:26:55.138Z,96.40
2019-01-22T01:27:55.609Z,96.38
2019-01-22T01:28:56.077Z,96.40
2019-01-22T01:29:56.550Z,96.41
2019-01-22T01:30:57.023Z,96.40
2019-01-22T01:31:57.492Z,96.40
2019-01-22T01:32:57.965Z,96.40
2019-01-22T01:33:58.781Z,96.40
2019-01-22T01:34:58.909Z,96.40
2019-01-22T01:35:59.381Z,96.40
2019-01-22T01:36:59.866Z,96.41
2019-01-22T01:38:00.322Z,96.40
2019-01-22T01:39:00.795Z,96.41
2019-01-22T01:40:01.266Z,96.40
2019-01-22T01:41:01.738Z,96.40
2019-01-22T01:42:02.211Z,96.38
2019-01-22T01:43:02.680Z,96.40
2019-01-22T01:44:03.152Z,96.40
2019-01-22T01:45:03.627Z,96.38
2019-01-22T01:46:04.096Z,96.40
2019-01-22T01:47:04.570Z,96.36
2019-01-22T01:48:05.040Z,96.40
2019-01-22T01:49:05.511Z,96.40
2019-01-22T01:50:05.984Z,96.40
2019-01-22T01:51:06.458Z,96.40
2019-01-22T01:52:06.929Z,96.40
2019-01-22T01:53:07.399Z,96.40
2019-01-22T01:54:07.872Z,96.40
2019-01-22T01:55:08.689Z,96.38
2019-01-22T01:56:08.817Z,96.40
2019-01-22T01:57:09.287Z,96.41
2019-01-22T01:58:09.762Z,96.38
2019-01-22T01:59:10.235Z,96.41
2019-01-22T02:00:10.705Z,96.41
2019-01-22T02:01:11.184Z,96.40
2019-01-22T02:02:11.649Z,96.38
2019-01-22T02:03:12.462Z,96.41
2019-01-22T02:04:12.898Z,96.41
2019-01-22T02:05:13.066Z,96.41
2019-01-22T02:06:13.537Z,96.41
2019-01-22T02:07:14.011Z,96.41
2019-01-22T02:08:14.484Z,96.41
2019-01-22T02:09:14.956Z,96.41
2019-01-22T02:10:15.427Z,96.41
2019-01-22T02:11:15.935Z,96.41
2019-01-22T02:12:16.374Z,96.41
2019-01-22T02:13:16.844Z,96.39
2019-01-22T02:14:17.315Z,96.40
2019-01-22T02:15:17.794Z,96.41
2019-01-22T02:16:18.262Z,96.41
2019-01-22T02:17:19.075Z,96.41
2019-01-22T02:18:19.257Z,96.40
2019-01-22T02:19:19.678Z,96.40
2019-01-22T02:20:20.153Z,96.40
2019-01-22T02:21:20.630Z,96.41
2019-01-22T02:22:21.095Z,96.40
2019-01-22T02:23:21.568Z,96.40
2019-01-22T02:24:22.040Z,96.41
2019-01-22T02:25:22.515Z,96.40
2019-01-22T02:26:23.022Z,96.41
2019-01-22T02:27:23.458Z,96.41
2019-01-22T02:28:23.930Z,96.39
2019-01-22T02:29:24.740Z,96.41
2019-01-22T02:30:24.872Z,96.41
2019-01-22T02:31:25.344Z,96.40
2019-01-22T02:32:27.645Z,96.39
2019-01-22T02:33:26.284Z,96.40
2019-01-22T02:34:26.961Z,96.40
2019-01-22T02:35:27.225Z,96.41
2019-01-22T02:36:27.694Z,96.41
2019-01-22T02:37:28.166Z,96.41
2019-01-22T02:38:28.638Z,96.41
2019-01-22T02:39:29.105Z,96.41
2019-01-22T02:40:29.575Z,96.41
2019-01-22T02:41:30.081Z,96.41
2019-01-22T02:42:30.511Z,96.41
2019-01-22T02:43:30.981Z,96.41
2019-01-22T02:44:31.450Z,96.41
2019-01-22T02:45:31.917Z,96.38
2019-01-22T02:46:32.424Z,96.40
2019-01-22T02:47:32.857Z,96.40
2019-01-22T02:48:33.331Z,96.41
2019-01-22T02:49:33.831Z,96.40
2019-01-22T02:50:34.267Z,96.41
2019-01-22T02:51:34.728Z,96.41
2019-01-22T02:52:35.197Z,96.41
2019-01-22T02:53:38.779Z,96.40
2019-01-22T02:54:36.133Z,96.41
2019-01-22T02:55:36.601Z,96.40
2019-01-22T02:56:37.069Z,96.41
2019-01-22T02:57:37.878Z,96.41
2019-01-22T02:58:38.007Z,96.41
2019-01-22T02:59:38.815Z,96.39
2019-01-22T03:00:38.943Z,96.41
2019-01-22T03:01:39.411Z,96.41
2019-01-22T03:02:39.881Z,96.41
2019-01-22T03:03:40.356Z,96.41
2019-01-22T03:04:40.817Z,96.41
2019-01-22T03:05:41.291Z,96.41
2019-01-22T03:06:42.112Z,96.40
2019-01-22T03:07:42.225Z,96.41
2019-01-22T03:08:42.692Z,96.41
2019-01-22T03:09:43.168Z,96.41
2019-01-22T03:10:43.630Z,96.41
2019-01-22T03:11:44.100Z,96.41
2019-01-22T03:12:44.568Z,96.41
2019-01-22T03:13:45.038Z,96.41
2019-01-22T03:14:45.510Z,96.41
2019-01-22T03:15:45.976Z,96.41
2019-01-22T03:16:46.446Z,96.41
2019-01-22T03:17:46.914Z,96.41
2019-01-22T03:18:47.386Z,96.41
2019-01-22T03:19:47.857Z,96.41
2019-01-22T03:20:48.331Z,96.41
2019-01-22T03:21:48.797Z,96.41
2019-01-22T03:22:49.267Z,96.41
2019-01-22T03:23:49.735Z,96.41
2019-01-22T03:24:50.215Z,96.39
2019-01-22T03:25:50.678Z,96.41
2019-01-22T03:26:51.146Z,96.41
2019-01-22T03:27:51.616Z,96.41
2019-01-22T03:28:52.088Z,96.41
2019-01-22T03:29:52.557Z,96.41
2019-01-22T03:30:53.038Z,96.41
2019-01-22T03:31:53.499Z,96.41
2019-01-22T03:32:54.314Z,96.41
2019-01-22T03:33:54.438Z,96.41
2019-01-22T03:34:54.911Z,96.41
2019-01-22T03:35:55.383Z,96.41
2019-01-22T03:36:55.855Z,96.41
2019-01-22T03:37:56.324Z,96.41
2019-01-22T03:38:56.794Z,96.37
2019-01-22T03:39:57.267Z,96.41
2019-01-22T03:40:57.737Z,96.41
2019-01-22T03:41:58.211Z,96.41
2019-01-22T03:42:59.021Z,96.41
2019-01-22T03:43:59.151Z,96.41
2019-01-22T03:44:59.621Z,96.41
2019-01-22T03:46:00.091Z,96.41
2019-01-22T03:47:00.564Z,96.41
2019-01-22T03:48:01.039Z,96.41
2019-01-22T03:49:01.507Z,96.41
2019-01-22T03:50:01.979Z,96.42
2019-01-22T03:51:02.449Z,96.41
2019-01-22T03:52:02.921Z,96.41
2019-01-22T03:53:03.394Z,96.41
2019-01-22T03:54:03.863Z,96.41
2019-01-22T03:55:04.377Z,96.41
2019-01-22T03:56:04.807Z,96.41
2019-01-22T03:57:05.283Z,96.41
2019-01-22T03:58:05.754Z,96.41
2019-01-22T03:59:06.225Z,96.41
2019-01-22T04:00:06.696Z,96.41
2019-01-22T04:01:07.167Z,96.41
2019-01-22T04:02:07.639Z,96.41
2019-01-22T04:03:08.119Z,96.41
2019-01-22T04:04:08.584Z,96.41
2019-01-22T04:05:09.059Z,96.41
2019-01-22T04:06:09.528Z,96.41
2019-01-22T04:07:10.341Z,96.41
2019-01-22T04:08:10.471Z,96.41
2019-01-22T04:09:10.946Z,96.41
2019-01-22T04:10:11.416Z,96.41
2019-01-22T04:11:11.926Z,96.41
2019-01-22T04:12:12.360Z,96.41
2019-01-22T04:13:12.833Z,96.41
2019-01-22T04:14:13.305Z,96.41
2019-01-22T04:15:13.790Z,96.41
2019-01-22T04:16:14.253Z,96.41
2019-01-22T04:17:14.724Z,96.41
2019-01-22T04:18:15.400Z,96.41
2019-01-22T04:19:15.667Z,96.39
2019-01-22T04:20:16.140Z,96.41
2019-01-22T04:21:16.612Z,96.41
2019-01-22T04:22:17.088Z,96.41
2019-01-22T04:23:17.569Z,96.41
2019-01-22T04:24:18.031Z,96.41
2019-01-22T04:25:18.503Z,96.41
2019-01-22T04:27:19.447Z,96.41
2019-01-22T04:28:20.261Z,96.41
2019-01-22T04:29:20.393Z,96.41
2019-01-22T04:30:21.208Z,96.41
2019-01-22T04:31:21.337Z,96.41
2019-01-22T04:32:21.808Z,96.42
2019-01-22T04:33:22.281Z,96.41
2019-01-22T04:34:22.753Z,96.41
2019-01-22T04:35:23.230Z,96.41
2019-01-22T04:36:23.700Z,96.41
2019-01-22T04:37:24.176Z,96.41
2019-01-22T04:38:24.643Z,96.41
2019-01-22T04:39:25.117Z,96.41
2019-01-22T04:40:25.587Z,96.41
2019-01-22T04:41:26.060Z,96.41
2019-01-22T04:42:26.529Z,96.41
2019-01-22T04:43:27.047Z,96.41
2019-01-22T04:44:27.479Z,96.41
2019-01-22T04:45:27.944Z,96.41
2019-01-22T04:46:28.419Z,96.42
2019-01-22T04:47:28.886Z,96.41
2019-01-22T04:48:29.356Z,96.41
2019-01-22T04:49:29.826Z,96.41
2019-01-22T04:50:30.349Z,96.41
2019-01-22T04:51:30.767Z,96.41
2019-01-22T04:52:31.234Z,96.42
2019-01-22T04:53:31.704Z,96.41
2019-01-22T04:54:32.515Z,96.41
2019-01-22T04:55:32.643Z,96.41
2019-01-22T04:56:33.112Z,96.41
2019-01-22T04:57:33.581Z,96.41
2019-01-22T04:58:34.048Z,96.41
2019-01-22T04:59:34.554Z,96.41
2019-01-22T05:00:34.984Z,96.41
2019-01-22T05:01:35.454Z,96.41
2019-01-22T05:02:35.927Z,96.41
2019-01-22T05:03:36.392Z,96.38
2019-01-22T05:04:36.858Z,96.42
2019-01-22T05:05:37.326Z,96.42
2019-01-22T05:06:37.795Z,96.41
2019-01-22T05:07:38.269Z,96.42
2019-01-22T05:08:38.732Z,96.41
2019-01-22T05:09:39.201Z,96.41
2019-01-22T05:10:39.667Z,96.42
2019-01-22T05:11:40.138Z,96.41
2019-01-22T05:12:40.610Z,96.41
2019-01-22T05:13:41.111Z,96.42
2019-01-22T05:14:41.543Z,96.41
2019-01-22T05:15:42.010Z,96.41
2019-01-22T05:16:42.478Z,96.42
2019-01-22T05:17:42.951Z,96.41
2019-01-22T05:18:43.415Z,96.41
2019-01-22T05:19:43.924Z,96.42
2019-01-22T05:20:44.352Z,96.41
2019-01-22T05:21:44.824Z,96.41
2019-01-22T05:22:45.293Z,96.41
2019-01-22T05:23:45.760Z,96.42
2019-01-22T05:24:46.229Z,96.42
2019-01-22T05:25:46.702Z,96.42
2019-01-22T05:26:47.166Z,96.42
2019-01-22T05:27:47.638Z,96.42
2019-01-22T05:28:48.106Z,96.42
2019-01-22T05:29:48.575Z,96.41
2019-01-22T05:30:49.044Z,96.41
2019-01-22T05:31:49.515Z,96.41
2019-01-22T05:32:49.986Z,96.41
2019-01-22T05:33:50.493Z,96.42
2019-01-22T05:34:50.922Z,96.41
2019-01-22T05:35:51.393Z,96.42
2019-01-22T05:36:51.869Z,96.42
2019-01-22T05:37:52.333Z,96.42
2019-01-22T05:38:52.825Z,96.42
2019-01-22T05:39:53.272Z,96.42
2019-01-22T05:40:53.748Z,96.42
2019-01-22T05:41:54.214Z,96.41
2019-01-22T05:42:54.687Z,96.41
2019-01-22T05:43:55.156Z,96.42
2019-01-22T05:44:55.625Z,96.42
2019-01-22T05:45:56.095Z,96.41
2019-01-22T05:46:56.907Z,96.42
2019-01-22T05:47:57.041Z,96.42
2019-01-22T05:48:57.513Z,96.42
2019-01-22T05:49:57.979Z,96.42
2019-01-22T05:50:58.448Z,96.42
2019-01-22T05:51:58.923Z,96.42
2019-01-22T05:52:59.392Z,96.41
2019-01-22T05:53:59.869Z,96.41
2019-01-22T05:55:00.334Z,96.42
2019-01-22T05:56:00.810Z,96.42
2019-01-22T05:57:01.275Z,96.42
2019-01-22T05:58:01.748Z,96.42
2019-01-22T05:59:02.220Z,96.42
2019-01-22T06:00:02.688Z,96.42
2019-01-22T06:01:03.160Z,96.41
2019-01-22T06:02:03.631Z,96.42
2019-01-22T06:03:04.103Z,96.44
2019-01-22T06:04:04.575Z,96.41
2019-01-22T06:05:05.046Z,96.42
2019-01-22T06:06:05.522Z,96.42
2019-01-22T06:07:05.990Z,96.42
2019-01-22T06:08:06.460Z,96.42
2019-01-22T06:10:07.404Z,96.42
2019-01-22T06:11:07.874Z,96.42
2019-01-22T06:12:08.347Z,96.42
2019-01-22T06:13:08.819Z,96.42
2019-01-22T06:14:09.289Z,96.45
2019-01-22T06:15:09.767Z,96.42
2019-01-22T06:16:10.439Z,96.42
2019-01-22T06:17:10.704Z,96.44
2019-01-22T06:18:11.179Z,96.42
2019-01-22T06:19:11.656Z,96.42
2019-01-22T06:20:12.127Z,96.42
2019-01-22T06:21:12.594Z,96.42
2019-01-22T06:22:13.066Z,96.42
2019-01-22T06:23:13.540Z,96.42
2019-01-22T06:24:14.012Z,96.42
2019-01-22T06:25:14.481Z,96.42
2019-01-22T06:26:14.956Z,96.42
2019-01-22T06:27:15.428Z,96.42
2019-01-22T06:28:16.444Z,96.42
2019-01-22T06:30:16.840Z,96.42
2019-01-22T06:31:17.315Z,96.42
2019-01-22T06:32:17.787Z,96.42
2019-01-22T06:33:18.603Z,96.42
2019-01-22T06:34:18.729Z,96.42
2019-01-22T06:35:19.542Z,96.42
2019-01-22T06:36:19.675Z,96.42
2019-01-22T06:37:20.148Z,96.42
2019-01-22T06:38:20.618Z,96.46
2019-01-22T06:39:21.089Z,96.42
2019-01-22T06:40:21.903Z,96.42
2019-01-22T06:41:22.035Z,96.44
2019-01-22T06:42:22.507Z,96.43
2019-01-22T06:43:22.978Z,96.42
2019-01-22T06:44:23.450Z,96.42
2019-01-22T06:45:23.926Z,96.44
2019-01-22T06:46:24.396Z,96.42
2019-01-22T06:47:24.906Z,96.42
2019-01-22T06:48:25.340Z,96.42
2019-01-22T06:49:25.820Z,96.42
2019-01-22T06:50:26.285Z,96.42
2019-01-22T06:51:26.910Z,96.42
2019-01-22T06:52:27.230Z,96.42
2019-01-22T06:53:27.704Z,96.42
2019-01-22T06:54:28.176Z,96.42
2019-01-22T06:55:28.647Z,96.42
2019-01-22T06:56:29.123Z,96.42
2019-01-22T06:57:29.592Z,96.42
2019-01-22T06:58:30.068Z,96.42
2019-01-22T06:59:30.537Z,96.42
2019-01-22T07:00:31.010Z,96.42
2019-01-22T07:01:31.483Z,96.42
2019-01-22T07:02:31.955Z,96.42
2019-01-22T07:03:32.428Z,96.42
2019-01-22T07:04:32.920Z,96.42
2019-01-22T07:05:33.375Z,96.42
2019-01-22T07:06:33.845Z,96.42
2019-01-22T07:07:34.322Z,96.44
2019-01-22T07:08:34.788Z,96.42
2019-01-22T07:09:35.261Z,96.44
2019-01-22T07:10:35.733Z,96.42
2019-01-22T07:11:36.208Z,96.45
2019-01-22T07:12:36.677Z,96.44
2019-01-22T07:13:37.147Z,96.42
2019-01-22T07:14:37.624Z,96.42
2019-01-22T07:15:38.089Z,96.42
2019-01-22T07:16:38.561Z,96.46
2019-01-22T07:17:39.031Z,96.44
2019-01-22T07:18:39.503Z,96.42
2019-01-22T07:19:39.969Z,96.44
2019-01-22T07:20:40.476Z,96.42
2019-01-22T07:21:40.914Z,96.42
2019-01-22T07:22:41.379Z,96.42
2019-01-22T07:23:41.851Z,96.42
2019-01-22T07:24:46.718Z,96.45
2019-01-22T07:25:42.784Z,96.46
2019-01-22T07:26:44.023Z,96.42
2019-01-22T07:27:43.722Z,96.44
2019-01-22T07:28:44.191Z,96.42
2019-01-22T07:29:44.659Z,96.42
2019-01-22T07:30:45.130Z,96.46
2019-01-22T07:31:45.594Z,96.46
2019-01-22T07:32:46.071Z,96.42
2019-01-22T07:33:46.533Z,96.46
2019-01-22T07:34:47.004Z,96.42
2019-01-22T07:35:47.468Z,96.42
2019-01-22T07:36:47.942Z,96.42
2019-01-22T07:37:48.405Z,96.42
2019-01-22T07:38:48.875Z,96.42
2019-01-22T07:39:49.341Z,96.44
2019-01-22T07:40:49.811Z,96.42
2019-01-22T07:41:50.281Z,96.46
2019-01-22T07:42:50.747Z,96.42
2019-01-22T07:43:51.223Z,96.43
2019-01-22T07:44:51.684Z,96.42
2019-01-22T07:45:52.155Z,96.42
2019-01-22T07:46:52.620Z,96.44
2019-01-22T07:47:53.091Z,96.47
2019-01-22T07:48:53.559Z,96.42
2019-01-22T07:49:54.028Z,96.42
2019-01-22T07:50:54.498Z,96.42
2019-01-22T07:51:55.016Z,96.42
2019-01-22T07:52:55.434Z,96.42
2019-01-22T07:53:56.245Z,96.43
2019-01-22T07:54:56.374Z,96.42
2019-01-22T07:55:56.846Z,96.42
2019-01-22T07:56:57.311Z,96.42
2019-01-22T07:57:57.783Z,96.44
2019-01-22T07:58:58.251Z,96.42
2019-01-22T07:59:58.720Z,96.43
2019-01-22T08:00:59.189Z,96.42
2019-01-22T08:01:59.697Z,96.46
2019-01-22T08:03:00.133Z,96.43
2019-01-22T08:04:00.602Z,96.43
2019-01-22T08:05:01.070Z,96.44
2019-01-22T08:06:01.884Z,96.42
2019-01-22T08:07:02.012Z,96.42
2019-01-22T08:08:02.478Z,96.42
2019-01-22T08:09:02.949Z,96.44
2019-01-22T08:10:03.420Z,96.44
2019-01-22T08:11:03.894Z,96.42
2019-01-22T08:12:04.359Z,96.43
2019-01-22T08:13:04.832Z,96.46
2019-01-22T08:14:05.304Z,96.43
2019-01-22T08:15:05.771Z,96.46
2019-01-22T08:16:06.241Z,96.46
2019-01-22T08:17:06.711Z,96.44
2019-01-22T08:18:07.187Z,96.44
2019-01-22T08:19:07.654Z,96.45
2019-01-22T08:20:08.130Z,96.44
2019-01-22T08:21:08.599Z,96.45
2019-01-22T08:22:09.069Z,96.45
2019-01-22T08:23:09.879Z,96.43
2019-01-22T08:24:10.349Z,96.47
2019-01-22T08:25:10.481Z,96.43
2019-01-22T08:26:10.950Z,96.47
2019-01-22T08:27:11.421Z,96.45
2019-01-22T08:28:11.892Z,96.46
2019-01-22T08:29:12.363Z,96.46
2019-01-22T08:30:12.835Z,96.47
2019-01-22T08:31:13.307Z,96.44
2019-01-22T08:32:13.775Z,96.47
2019-01-22T08:33:14.485Z,96.47
2019-01-22T08:34:15.063Z,96.47
2019-01-22T08:35:15.191Z,96.44
2019-01-22T08:36:15.665Z,96.45
2019-01-22T08:37:16.136Z,96.47
2019-01-22T08:38:16.605Z,96.43
2019-01-22T08:39:17.076Z,96.47
2019-01-22T08:40:17.548Z,96.45
2019-01-22T08:41:18.019Z,96.47
2019-01-22T08:42:18.496Z,96.45
2019-01-22T08:43:18.962Z,96.47
2019-01-22T08:44:19.774Z,96.47
2019-01-22T08:45:19.906Z,96.47
2019-01-22T08:46:20.380Z,96.45
2019-01-22T08:47:20.850Z,96.44
2019-01-22T08:48:21.318Z,96.45
2019-01-22T08:49:21.792Z,96.47
2019-01-22T08:50:22.262Z,96.43
2019-01-22T08:51:22.736Z,96.43
2019-01-22T08:52:23.257Z,96.42
2019-01-22T08:53:23.723Z,96.47
2019-01-22T08:54:24.492Z,96.45
2019-01-22T08:55:24.623Z,96.43
2019-01-22T08:56:25.093Z,96.45
2019-01-22T08:57:25.569Z,96.47
2019-01-22T08:58:26.042Z,96.45
2019-01-22T08:59:26.510Z,96.45
2019-01-22T09:00:26.983Z,96.44
2019-01-22T09:01:27.454Z,96.47
2019-01-22T09:02:27.925Z,96.47
2019-01-22T09:03:28.395Z,96.45
2019-01-22T09:04:28.867Z,96.42
2019-01-22T09:05:29.338Z,96.46
2019-01-22T09:06:29.810Z,96.47
2019-01-22T09:07:30.331Z,96.45
2019-01-22T09:08:30.750Z,96.43
2019-01-22T09:09:31.221Z,96.44
2019-01-22T09:10:31.692Z,96.47
2019-01-22T09:11:32.166Z,96.42
2019-01-22T09:12:32.630Z,96.46
2019-01-22T09:13:33.100Z,96.47
2019-01-22T09:14:33.574Z,96.43
2019-01-22T09:15:34.039Z,96.47
2019-01-22T09:16:34.850Z,96.47
2019-01-22T09:17:35.029Z,96.47
2019-01-22T09:18:35.446Z,96.47
2019-01-22T09:19:36.257Z,96.45
2019-01-22T09:20:36.385Z,96.47
2019-01-22T09:21:36.851Z,96.45
2019-01-22T09:23:37.789Z,96.43
2019-01-22T09:24:38.257Z,96.47
2019-01-22T09:25:38.727Z,96.45
2019-01-22T09:26:39.535Z,96.45
2019-01-22T09:27:39.663Z,96.46
2019-01-22T09:28:40.131Z,96.47
2019-01-22T09:29:40.605Z,96.45
2019-01-22T09:30:41.066Z,96.47
2019-01-22T09:31:41.573Z,96.47
2019-01-22T09:32:42.003Z,96.43
2019-01-22T09:33:42.472Z,96.47
2019-01-22T09:34:42.940Z,96.46
2019-01-22T09:35:43.408Z,96.47
2019-01-22T09:36:43.876Z,96.44
2019-01-22T09:37:44.345Z,96.46
2019-01-22T09:38:44.814Z,96.45
2019-01-22T09:39:45.283Z,96.45
2019-01-22T09:40:45.751Z,96.47
2019-01-22T09:41:46.221Z,96.43
2019-01-22T09:42:46.689Z,96.47
2019-01-22T09:43:47.158Z,96.47
2019-01-22T09:44:47.629Z,96.47
2019-01-22T09:45:48.099Z,96.45
2019-01-22T09:46:48.605Z,96.45
2019-01-22T09:47:49.375Z,96.43
2019-01-22T09:48:49.503Z,96.45
2019-01-22T09:49:49.973Z,96.47
2019-01-22T09:50:50.442Z,96.47
2019-01-22T09:51:50.911Z,96.43
2019-01-22T09:52:51.382Z,96.47
2019-01-22T09:53:51.850Z,96.45
2019-01-22T09:54:52.320Z,96.47
2019-01-22T09:55:53.133Z,96.47
2019-01-22T09:56:53.260Z,96.47
2019-01-22T09:57:53.728Z,96.47
2019-01-22T09:58:54.202Z,96.47
2019-01-22T09:59:55.010Z,96.47
2019-01-22T10:00:55.483Z,96.47
2019-01-22T10:01:55.610Z,96.47
2019-01-22T10:02:56.081Z,96.45
2019-01-22T10:04:03.224Z,96.47
2019-01-22T10:04:57.035Z,96.47
2019-01-22T10:05:57.496Z,96.47
2019-01-22T10:06:57.960Z,96.47
2019-01-22T10:07:58.433Z,96.47
2019-01-22T10:08:58.901Z,96.47
2019-01-22T10:09:59.373Z,96.47
2019-01-22T10:11:01.768Z,96.45
2019-01-22T10:12:00.315Z,96.47
2019-01-22T10:13:00.784Z,96.47
2019-01-22T10:14:01.256Z,96.47
2019-01-22T10:15:02.067Z,96.44
2019-01-22T10:16:02.202Z,96.47
2019-01-22T10:17:02.667Z,96.47
2019-01-22T10:18:03.139Z,96.47
2019-01-22T10:19:03.698Z,96.47
2019-01-22T10:20:04.082Z,96.47
2019-01-22T10:21:04.554Z,96.47
2019-01-22T10:22:05.022Z,96.47
2019-01-22T10:23:05.495Z,96.47
2019-01-22T10:24:05.966Z,96.47
2019-01-22T10:25:06.436Z,96.47
2019-01-22T10:26:06.950Z,96.47
2019-01-22T10:27:07.379Z,96.47
2019-01-22T10:28:07.853Z,96.47
2019-01-22T10:29:08.327Z,96.47
2019-01-22T10:30:08.796Z,96.47
2019-01-22T10:31:09.263Z,96.47
2019-01-22T10:32:09.737Z,96.47
2019-01-22T10:33:10.207Z,96.47
2019-01-22T10:34:10.682Z,96.47
2019-01-22T10:35:11.150Z,96.47
2019-01-22T10:36:11.622Z,96.47
2019-01-22T10:37:12.092Z,96.47
2019-01-22T10:38:12.565Z,96.48
2019-01-22T10:39:13.036Z,96.44
2019-01-22T10:40:13.514Z,96.47
2019-01-22T10:41:13.980Z,96.47
2019-01-22T10:42:14.452Z,96.47
2019-01-22T10:43:14.929Z,96.48
2019-01-22T10:44:15.395Z,96.47
2019-01-22T10:45:15.873Z,96.47
2019-01-22T10:46:16.544Z,96.47
2019-01-22T10:47:16.812Z,96.47
2019-01-22T10:48:17.282Z,96.47
2019-01-22T10:49:17.754Z,96.48
2019-01-22T10:50:18.227Z,96.47
2019-01-22T10:51:18.700Z,96.47
2019-01-22T10:52:19.170Z,96.48
2019-01-22T10:53:19.642Z,96.48
2019-01-22T10:54:20.115Z,96.47
2019-01-22T10:55:20.625Z,96.48
2019-01-22T10:56:21.061Z,96.47
2019-01-22T10:57:21.534Z,96.44
2019-01-22T10:58:22.003Z,96.47
2019-01-22T10:59:22.475Z,96.47
2019-01-22T11:00:22.951Z,96.47
2019-01-22T11:01:23.420Z,96.47
2019-01-22T11:02:23.893Z,96.47
2019-01-22T11:03:24.366Z,96.47
2019-01-22T11:04:24.841Z,96.47
2019-01-22T11:05:25.307Z,96.47
2019-01-22T11:06:25.780Z,96.48
2019-01-22T11:07:26.253Z,96.47
2019-01-22T11:08:26.726Z,96.47
2019-01-22T11:09:27.248Z,96.47
2019-01-22T11:10:27.669Z,96.47
2019-01-22T11:11:28.150Z,96.47
2019-01-22T11:12:28.614Z,96.48
2019-01-22T11:13:29.096Z,96.47
2019-01-22T11:14:29.557Z,96.47
2019-01-22T11:15:30.028Z,96.48
2019-01-22T11:16:30.504Z,96.47
2019-01-22T11:17:30.971Z,96.47
2019-01-22T11:18:31.444Z,96.48
2019-01-22T11:19:31.916Z,96.47
2019-01-22T11:20:32.421Z,96.48
2019-01-22T11:21:32.855Z,96.48
2019-01-22T11:22:33.666Z,96.47
2019-01-22T11:23:33.796Z,96.49
2019-01-22T11:24:34.657Z,96.47
2019-01-22T11:25:34.736Z,96.47
2019-01-22T11:26:35.203Z,96.47
2019-01-22T11:27:36.023Z,96.47
2019-01-22T11:28:36.142Z,96.47
2019-01-22T11:29:36.713Z,96.48
2019-01-22T11:30:37.117Z,96.47
2019-01-22T11:31:37.548Z,96.47
2019-01-22T11:32:38.017Z,96.47
2019-01-22T11:33:38.485Z,96.47
2019-01-22T11:34:38.954Z,96.47
2019-01-22T11:35:39.624Z,96.47
2019-01-22T11:36:39.890Z,96.47
2019-01-22T11:37:40.358Z,96.48
2019-01-22T11:38:40.827Z,96.47
2019-01-22T11:39:41.345Z,96.47
2019-01-22T11:40:41.763Z,96.48
2019-01-22T11:41:42.235Z,96.47
2019-01-22T11:42:42.699Z,96.47
2019-01-22T11:43:43.176Z,96.47
2019-01-22T11:44:43.639Z,96.47
2019-01-22T11:45:44.108Z,96.47
2019-01-22T11:46:44.573Z,96.47
2019-01-22T11:47:45.046Z,96.47
2019-01-22T11:48:45.510Z,96.47
2019-01-22T11:49:45.979Z,96.47
2019-01-22T11:50:46.447Z,96.47
2019-01-22T11:51:46.915Z,96.48
2019-01-22T11:52:47.385Z,96.47
2019-01-22T11:53:47.852Z,96.48
2019-01-22T11:54:48.372Z,96.47
2019-01-22T11:55:50.696Z,96.48
2019-01-22T11:56:49.261Z,96.48
2019-01-22T11:57:49.730Z,96.48
2019-01-22T11:58:50.198Z,96.47
2019-01-22T11:59:50.670Z,96.48
2019-01-22T12:00:51.136Z,96.48
2019-01-22T12:01:51.605Z,96.48
2019-01-22T12:02:52.075Z,96.47
2019-01-22T12:03:52.544Z,96.47
2019-01-22T12:04:53.019Z,96.47
2019-01-22T12:05:53.482Z,96.48
2019-01-22T12:06:53.954Z,96.48
2019-01-22T12:07:54.461Z,96.47
2019-01-22T12:08:54.894Z,96.48
2019-01-22T12:09:55.744Z,96.48
2019-01-22T12:10:55.833Z,96.47
2019-01-22T12:11:56.339Z,96.47
2019-01-22T12:12:56.774Z,96.47
2019-01-22T12:13:57.243Z,96.48
2019-01-22T12:14:57.713Z,96.48
2019-01-22T12:15:58.183Z,96.48
2019-01-22T12:16:58.656Z,96.47
2019-01-22T12:17:59.162Z,96.47
2019-01-22T12:18:59.595Z,96.50
2019-01-22T12:20:01.508Z,96.48
2019-01-22T12:21:00.535Z,96.48
2019-01-22T12:22:01.007Z,96.48
2019-01-22T12:23:01.477Z,96.47
2019-01-22T12:24:01.946Z,96.47
2019-01-22T12:25:02.418Z,96.50
2019-01-22T12:26:02.888Z,96.48
2019-01-22T12:27:03.397Z,96.48
2019-01-22T12:28:03.834Z,96.47
2019-01-22T12:29:04.302Z,96.48
2019-01-22T12:30:04.771Z,96.48
2019-01-22T12:31:05.243Z,96.48
2019-01-22T12:32:05.720Z,96.48
2019-01-22T12:33:06.223Z,96.48
2019-01-22T12:34:06.657Z,96.48
2019-01-22T12:35:07.129Z,96.48
2019-01-22T12:36:07.598Z,96.48
2019-01-22T12:37:08.069Z,96.48
2019-01-22T12:38:08.540Z,96.48
2019-01-22T12:39:09.050Z,96.48
2019-01-22T12:40:09.618Z,96.48
2019-01-22T12:41:09.958Z,96.48
2019-01-22T12:42:10.427Z,96.48
2019-01-22T12:43:10.900Z,96.48
2019-01-22T12:44:11.369Z,96.48
2019-01-22T12:45:11.841Z,96.48
2019-01-22T12:46:12.329Z,96.48
2019-01-22T12:47:13.125Z,96.48
2019-01-22T12:48:13.257Z,96.48
2019-01-22T12:49:13.727Z,96.48
2019-01-22T12:50:14.258Z,96.51
2019-01-22T12:51:14.708Z,96.48
2019-01-22T12:52:15.145Z,96.48
2019-01-22T12:53:15.651Z,96.48
2019-01-22T12:54:16.098Z,96.48
2019-01-22T12:55:16.611Z,96.48
2019-01-22T12:56:17.030Z,96.48
2019-01-22T12:57:17.503Z,96.48
2019-01-22T12:58:17.974Z,96.48
2019-01-22T12:59:18.789Z,96.48
2019-01-22T13:00:18.922Z,96.48
2019-01-22T13:01:19.387Z,96.48
2019-01-22T13:02:19.860Z,96.48